createdAt,value
2023-02-07T00:00:06.955Z,1.40
2023-02-07T00:01:39.771Z,1.40
2023-02-07T00:03:11.628Z,1.40
2023-02-07T00:04:44.391Z,1.40
2023-02-07T00:06:19.600Z,1.40
2023-02-07T00:07:52.347Z,1.30
2023-02-07T00:09:26.374Z,1.30
2023-02-07T00:10:59.074Z,1.30
2023-02-07T00:12:31.850Z,1.30
2023-02-07T00:14:04.670Z,1.20
2023-02-07T00:15:37.687Z,1.20
2023-02-07T00:17:09.674Z,1.20
2023-02-07T00:18:42.554Z,1.20
2023-02-07T00:20:17.333Z,1.20
2023-02-07T00:21:50.021Z,1.20
2023-02-07T00:23:22.686Z,1.20
2023-02-07T00:24:56.726Z,1.10
2023-02-07T00:26:30.036Z,1.10
2023-02-07T00:28:02.847Z,1.10
2023-02-07T00:29:35.640Z,1.00
2023-02-07T00:31:10.213Z,1.10
2023-02-07T00:32:43.224Z,1.00
2023-02-07T00:34:16.811Z,1.10
2023-02-07T00:35:57.434Z,1.10
2023-02-07T00:37:30.318Z,1.00
2023-02-07T00:39:06.272Z,1.00
2023-02-07T00:40:40.277Z,1.00
2023-02-07T00:42:13.022Z,1.00
2023-02-07T00:43:47.318Z,1.00
2023-02-07T00:45:20.009Z,0.90
2023-02-07T00:46:52.748Z,0.90
2023-02-07T00:48:24.522Z,1.00
2023-02-07T00:49:57.209Z,0.90
2023-02-07T00:51:29.010Z,0.90
2023-02-07T00:53:01.733Z,0.90
2023-02-07T00:54:34.642Z,0.90
2023-02-07T00:56:09.349Z,0.90
2023-02-07T00:57:42.096Z,0.90
2023-02-07T00:59:14.801Z,0.90
2023-02-07T01:00:47.676Z,0.90
2023-02-07T01:02:20.441Z,0.90
2023-02-07T01:03:53.191Z,0.90
2023-02-07T01:05:25.931Z,0.90
2023-02-07T01:06:58.656Z,0.90
2023-02-07T01:08:31.440Z,1.00
2023-02-07T01:10:05.025Z,0.90
2023-02-07T01:11:39.097Z,0.90
2023-02-07T01:13:12.925Z,0.90
2023-02-07T01:14:45.613Z,0.80
2023-02-07T01:16:19.395Z,0.90
2023-02-07T01:17:52.176Z,0.90
2023-02-07T01:19:24.927Z,0.90
2023-02-07T01:20:57.047Z,0.90
2023-02-07T01:22:29.824Z,0.90
2023-02-07T01:24:02.610Z,0.90
2023-02-07T01:25:35.798Z,0.90
2023-02-07T01:27:11.848Z,0.90
2023-02-07T01:28:43.747Z,0.90
2023-02-07T01:30:16.467Z,0.90
2023-02-07T01:31:49.216Z,0.90
2023-02-07T01:33:20.980Z,0.90
2023-02-07T01:34:53.662Z,0.90
2023-02-07T01:36:27.620Z,0.90
2023-02-07T01:38:02.560Z,0.90
2023-02-07T01:39:35.319Z,0.90
2023-02-07T01:41:07.909Z,0.90
2023-02-07T01:42:41.986Z,1.00
2023-02-07T01:44:56.531Z,1.00
2023-02-07T01:46:30.990Z,1.00
2023-02-07T01:48:05.926Z,1.00
2023-02-07T01:49:38.969Z,1.00
2023-02-07T01:51:11.961Z,1.00
2023-02-07T01:52:45.072Z,1.00
2023-02-07T01:54:19.551Z,1.00
2023-02-07T01:55:57.952Z,1.00
2023-02-07T01:57:31.306Z,1.00
2023-02-07T01:59:07.165Z,1.00
2023-02-07T02:00:39.211Z,1.00
2023-02-07T02:02:13.407Z,1.10
2023-02-07T02:03:50.112Z,1.10
2023-02-07T02:05:23.440Z,1.10
2023-02-07T02:06:57.049Z,1.10
2023-02-07T02:08:29.951Z,1.10
2023-02-07T02:10:01.994Z,1.10
2023-02-07T02:12:05.367Z,1.10
2023-02-07T02:13:46.308Z,1.20
2023-02-07T02:15:36.806Z,1.10
2023-02-07T02:17:17.294Z,1.10
2023-02-07T02:19:02.125Z,1.20
2023-02-07T02:20:58.455Z,1.20
2023-02-07T02:22:56.418Z,1.10
2023-02-07T02:24:53.541Z,1.20
2023-02-07T02:26:42.905Z,1.10
2023-02-07T02:28:44.951Z,1.10
2023-02-07T02:30:51.310Z,1.10
2023-02-07T02:33:00.815Z,1.10
2023-02-07T02:34:42.442Z,1.10
2023-02-07T02:36:23.794Z,1.10
2023-02-07T02:38:01.332Z,1.10
2023-02-07T02:39:41.622Z,1.10
2023-02-07T02:41:18.711Z,1.00
2023-02-07T02:42:54.062Z,1.00
2023-02-07T02:44:33.742Z,1.00
2023-02-07T02:46:12.175Z,1.00
2023-02-07T02:47:48.924Z,1.00
2023-02-07T02:49:22.776Z,0.90
2023-02-07T02:50:57.441Z,1.00
2023-02-07T02:52:48.560Z,1.00
2023-02-07T02:54:31.926Z,0.90
2023-02-07T02:56:53.017Z,0.90
2023-02-07T02:58:38.236Z,0.90
2023-02-07T03:00:22.578Z,0.80
2023-02-07T03:02:04.529Z,0.90
2023-02-07T03:03:59.033Z,0.80
2023-02-07T03:05:44.729Z,0.80
2023-02-07T03:07:39.253Z,0.80
2023-02-07T03:09:25.586Z,0.80
2023-02-07T03:11:06.043Z,0.70
2023-02-07T03:12:45.029Z,0.80
2023-02-07T03:14:24.751Z,0.70
2023-02-07T03:16:10.852Z,0.70
2023-02-07T03:17:46.328Z,0.70
2023-02-07T03:19:26.066Z,0.70
2023-02-07T03:21:04.353Z,0.70
2023-02-07T03:22:39.355Z,0.60
2023-02-07T03:24:16.075Z,0.60
2023-02-07T03:25:51.826Z,0.60
2023-02-07T03:27:26.251Z,0.60
2023-02-07T03:29:00.330Z,0.60
2023-02-07T03:30:35.428Z,0.60
2023-02-07T03:32:09.271Z,0.50
2023-02-07T03:33:44.481Z,0.50
2023-02-07T03:35:23.480Z,0.50
2023-02-07T03:37:00.423Z,0.50
2023-02-07T03:38:35.102Z,0.50
2023-02-07T03:40:09.649Z,0.50
2023-02-07T03:41:45.126Z,0.50
2023-02-07T03:43:23.366Z,0.50
2023-02-07T03:44:58.193Z,0.50
2023-02-07T03:46:35.286Z,0.60
2023-02-07T03:48:08.043Z,0.50
2023-02-07T03:49:39.796Z,0.50
2023-02-07T03:51:12.495Z,0.50
2023-02-07T03:52:45.197Z,0.50
2023-02-07T03:54:19.488Z,0.50
2023-02-07T03:55:53.161Z,0.50
2023-02-07T03:57:25.875Z,0.50
2023-02-07T03:58:58.574Z,0.40
2023-02-07T04:00:30.333Z,0.40
2023-02-07T04:02:03.278Z,0.40
2023-02-07T04:03:36.106Z,0.40
2023-02-07T04:05:09.539Z,0.40
2023-02-07T04:06:41.298Z,0.40
2023-02-07T04:08:13.989Z,0.40
2023-02-07T04:09:48.046Z,0.30
2023-02-07T04:11:20.760Z,0.40
2023-02-07T04:12:53.441Z,0.30
2023-02-07T04:14:25.469Z,0.30
2023-02-07T04:15:58.313Z,0.20
2023-02-07T04:17:31.561Z,0.20
2023-02-07T04:19:03.387Z,0.20
2023-02-07T04:20:36.125Z,0.20
2023-02-07T04:22:10.909Z,0.20
2023-02-07T04:23:43.615Z,0.10
2023-02-07T04:25:18.594Z,0.10
2023-02-07T04:26:51.300Z,0.10
2023-02-07T04:28:23.069Z,0.10
2023-02-07T04:29:56.244Z,0.10
2023-02-07T04:31:28.168Z,0.10
2023-02-07T04:33:00.915Z,0.10
2023-02-07T04:34:33.611Z,0.10
2023-02-07T04:36:07.114Z,0.10
2023-02-07T04:37:40.585Z,0.10
2023-02-07T04:39:12.351Z,0.10
2023-02-07T04:40:46.411Z,0.00
2023-02-07T04:42:19.142Z,0.00
2023-02-07T04:43:51.862Z,0.00
2023-02-07T04:45:24.618Z,0.00
2023-02-07T04:46:57.341Z,0.00
2023-02-07T04:48:30.245Z,0.00
2023-02-07T04:50:02.930Z,0.00
2023-02-07T04:51:35.628Z,-0.10
2023-02-07T04:53:08.332Z,-0.10
2023-02-07T04:54:41.291Z,-0.10
2023-02-07T04:56:15.346Z,-0.10
2023-02-07T04:57:48.000Z,-0.20
2023-02-07T04:59:20.700Z,-0.20
2023-02-07T05:00:53.918Z,-0.20
2023-02-07T05:02:26.717Z,-0.20
2023-02-07T05:03:59.464Z,-0.30
2023-02-07T05:05:32.174Z,-0.30
2023-02-07T05:07:04.862Z,-0.30
2023-02-07T05:08:38.279Z,-0.30
2023-02-07T05:10:11.206Z,-0.30
2023-02-07T05:11:45.542Z,-0.30
2023-02-07T05:13:18.250Z,-0.30
2023-02-07T05:14:50.961Z,-0.30
2023-02-07T05:16:23.692Z,-0.30
2023-02-07T05:17:56.887Z,-0.30
2023-02-07T05:19:30.029Z,-0.30
2023-02-07T05:21:02.751Z,-0.30
2023-02-07T05:22:35.449Z,-0.30
2023-02-07T05:24:08.574Z,-0.30
2023-02-07T05:25:42.920Z,-0.30
2023-02-07T05:27:16.944Z,-0.30
2023-02-07T05:28:49.627Z,-0.40
2023-02-07T05:30:21.582Z,-0.40
2023-02-07T05:32:11.949Z,-0.40
2023-02-07T05:33:44.619Z,-0.40
2023-02-07T05:35:16.506Z,-0.40
2023-02-07T05:36:49.192Z,-0.50
2023-02-07T05:38:22.408Z,-0.50
2023-02-07T05:39:55.102Z,-0.50
2023-02-07T05:41:27.784Z,-0.50
2023-02-07T05:43:00.865Z,-0.50
2023-02-07T05:44:33.545Z,-0.60
2023-02-07T05:46:06.490Z,-0.60
2023-02-07T05:47:39.246Z,-0.60
2023-02-07T05:49:11.949Z,-0.60
2023-02-07T05:50:44.659Z,-0.60
2023-02-07T05:52:17.395Z,-0.70
2023-02-07T05:53:50.088Z,-0.70
2023-02-07T05:55:22.772Z,-0.70
2023-02-07T05:56:55.471Z,-0.80
2023-02-07T05:58:29.514Z,-0.80
2023-02-07T06:00:02.209Z,-0.80
2023-02-07T06:01:37.320Z,-0.80
2023-02-07T06:03:10.144Z,-0.80
2023-02-07T06:04:42.873Z,-0.80
2023-02-07T06:06:15.651Z,-0.80
2023-02-07T06:07:48.426Z,-0.90
2023-02-07T06:09:21.608Z,-0.90
2023-02-07T06:10:54.288Z,-0.90
2023-02-07T06:12:27.218Z,-0.90
2023-02-07T06:14:01.290Z,-0.90
2023-02-07T06:15:34.053Z,-0.90
2023-02-07T06:17:06.837Z,-1.00
2023-02-07T06:18:39.619Z,-1.00
2023-02-07T06:20:13.048Z,-0.90
2023-02-07T06:21:47.010Z,-0.90
2023-02-07T06:23:22.904Z,-1.00
2023-02-07T06:24:55.630Z,-0.90
2023-02-07T06:26:28.310Z,-1.00
2023-02-07T06:28:01.700Z,-1.00
2023-02-07T06:29:35.762Z,-1.00
2023-02-07T06:31:08.668Z,-1.00
2023-02-07T06:32:41.638Z,-1.00
2023-02-07T06:34:13.392Z,-1.00
2023-02-07T06:35:47.324Z,-1.00
2023-02-07T06:37:20.058Z,-0.90
2023-02-07T06:38:55.371Z,-1.00
2023-02-07T06:40:28.190Z,-1.00
2023-02-07T06:42:00.883Z,-1.00
2023-02-07T06:43:33.606Z,-1.00
2023-02-07T06:45:08.439Z,-1.00
2023-02-07T06:46:41.161Z,-1.00
2023-02-07T06:48:13.919Z,-1.10
2023-02-07T06:49:46.615Z,-1.10
2023-02-07T06:51:19.316Z,-1.10
2023-02-07T06:52:52.086Z,-1.10
2023-02-07T06:54:24.875Z,-1.10
2023-02-07T06:55:57.615Z,-1.20
2023-02-07T06:57:30.319Z,-1.10
2023-02-07T06:59:03.064Z,-1.20
2023-02-07T07:00:37.113Z,-1.20
2023-02-07T07:02:11.644Z,-1.10
2023-02-07T07:03:44.329Z,-1.20
2023-02-07T07:05:17.197Z,-1.20
2023-02-07T07:06:49.903Z,-1.20
2023-02-07T07:08:22.724Z,-1.20
2023-02-07T07:09:55.422Z,-1.20
2023-02-07T07:11:28.122Z,-1.20
2023-02-07T07:13:00.850Z,-1.20
2023-02-07T07:14:33.782Z,-1.20
2023-02-07T07:16:08.376Z,-1.20
2023-02-07T07:17:41.092Z,-1.20
2023-02-07T07:19:13.857Z,-1.20
2023-02-07T07:20:46.589Z,-1.20
2023-02-07T07:22:21.194Z,-1.20
2023-02-07T07:23:54.004Z,-1.20
2023-02-07T07:25:26.726Z,-1.20
2023-02-07T07:26:59.449Z,-1.10
2023-02-07T07:28:32.197Z,-1.10
2023-02-07T07:30:05.636Z,-1.20
2023-02-07T07:31:39.685Z,-1.10
2023-02-07T07:33:12.426Z,-1.20
2023-02-07T07:34:45.210Z,-1.10
2023-02-07T07:36:17.907Z,-1.10
2023-02-07T07:37:50.587Z,-1.10
2023-02-07T07:39:23.431Z,-1.10
2023-02-07T07:40:56.133Z,-1.10
2023-02-07T07:42:28.886Z,-1.10
2023-02-07T07:44:01.636Z,-1.10
2023-02-07T07:45:34.339Z,-1.00
2023-02-07T07:47:08.437Z,-1.00
2023-02-07T07:48:41.244Z,-1.00
2023-02-07T07:50:14.030Z,-1.00
2023-02-07T07:51:46.984Z,-1.00
2023-02-07T07:53:20.592Z,-1.00
2023-02-07T07:54:53.287Z,-1.00
2023-02-07T07:56:26.004Z,-1.00
2023-02-07T07:57:58.672Z,-1.00
2023-02-07T07:59:31.566Z,-1.00
2023-02-07T08:01:04.461Z,-1.00
2023-02-07T08:02:38.533Z,-1.00
2023-02-07T08:04:11.273Z,-1.00
2023-02-07T08:05:45.440Z,-1.00
2023-02-07T08:07:18.258Z,-0.90
2023-02-07T08:08:51.083Z,-0.90
2023-02-07T08:10:23.769Z,-0.90
2023-02-07T08:11:56.619Z,-0.80
2023-02-07T08:13:29.737Z,-0.60
2023-02-07T08:15:07.667Z,-0.40
2023-02-07T08:16:40.387Z,-0.30
2023-02-07T08:18:14.467Z,0.00
2023-02-07T08:19:47.171Z,0.30
2023-02-07T08:21:20.110Z,0.50
2023-02-07T08:22:52.981Z,0.70
2023-02-07T08:24:27.611Z,0.90
2023-02-07T08:26:00.471Z,1.10
2023-02-07T08:27:33.257Z,1.10
2023-02-07T08:29:05.991Z,1.00
2023-02-07T08:30:39.055Z,0.90
2023-02-07T08:32:11.922Z,0.80
2023-02-07T08:33:46.122Z,0.70
2023-02-07T08:35:19.221Z,0.60
2023-02-07T08:36:51.928Z,0.50
2023-02-07T08:38:24.614Z,0.40
2023-02-07T08:39:58.046Z,0.40
2023-02-07T08:41:30.734Z,0.30
2023-02-07T08:43:06.608Z,0.40
2023-02-07T08:44:39.296Z,0.30
2023-02-07T08:46:12.133Z,0.30
2023-02-07T08:47:45.568Z,0.30
2023-02-07T08:49:19.701Z,0.30
2023-02-07T08:50:52.394Z,0.30
2023-02-07T08:52:25.211Z,0.20
2023-02-07T08:53:57.902Z,0.20
2023-02-07T08:55:30.777Z,0.20
2023-02-07T08:57:03.489Z,0.20
2023-02-07T08:58:36.209Z,0.20
2023-02-07T09:00:10.240Z,0.20
2023-02-07T09:01:42.971Z,0.20
2023-02-07T09:03:16.218Z,0.20
2023-02-07T09:04:50.361Z,0.20
2023-02-07T09:06:23.971Z,0.20
2023-02-07T09:07:56.656Z,0.30
2023-02-07T09:09:29.371Z,0.20
2023-02-07T09:11:02.231Z,0.30
2023-02-07T09:12:35.835Z,0.30
2023-02-07T09:14:08.572Z,0.30
2023-02-07T09:15:41.316Z,0.30
2023-02-07T09:17:14.059Z,0.30
2023-02-07T09:18:47.033Z,0.30
2023-02-07T09:20:21.391Z,0.30
2023-02-07T09:21:54.106Z,0.30
2023-02-07T09:23:27.591Z,0.30
2023-02-07T09:25:00.297Z,0.40
2023-02-07T09:26:35.145Z,0.40
2023-02-07T09:28:07.962Z,0.40
2023-02-07T09:29:40.811Z,0.40
2023-02-07T09:31:15.017Z,0.40
2023-02-07T09:32:47.794Z,0.40
2023-02-07T09:34:20.651Z,0.40
2023-02-07T09:35:55.112Z,0.40
2023-02-07T09:37:27.982Z,0.40
2023-02-07T09:39:02.399Z,0.40
2023-02-07T09:40:36.559Z,0.50
2023-02-07T09:42:20.157Z,0.50
2023-02-07T09:44:09.343Z,0.50
2023-02-07T09:45:46.213Z,0.50
2023-02-07T09:47:21.800Z,0.60
2023-02-07T09:48:59.874Z,0.60
2023-02-07T09:50:38.257Z,0.60
2023-02-07T09:52:17.813Z,0.60
2023-02-07T09:53:54.384Z,0.60
2023-02-07T09:55:32.478Z,0.70
2023-02-07T09:57:09.402Z,0.80
2023-02-07T09:58:46.140Z,0.80
2023-02-07T10:00:24.008Z,0.80
2023-02-07T10:02:01.183Z,0.90
2023-02-07T10:03:38.951Z,0.90
2023-02-07T10:05:17.843Z,1.20
2023-02-07T10:06:53.490Z,1.40
2023-02-07T10:08:39.752Z,1.70
2023-02-07T10:10:16.840Z,2.00
2023-02-07T10:11:53.855Z,2.20
2023-02-07T10:13:42.916Z,2.40
2023-02-07T10:15:31.617Z,2.60
2023-02-07T10:17:30.555Z,2.80
2023-02-07T10:19:16.046Z,3.00
2023-02-07T10:20:56.398Z,3.20
2023-02-07T10:22:36.746Z,3.40
2023-02-07T10:24:36.742Z,3.50
2023-02-07T10:26:17.258Z,3.60
2023-02-07T10:27:59.016Z,3.70
2023-02-07T10:29:48.052Z,3.70
2023-02-07T10:31:23.970Z,3.90
2023-02-07T10:33:03.967Z,4.10
2023-02-07T10:34:40.657Z,4.10
2023-02-07T10:36:15.686Z,4.20
2023-02-07T10:37:51.363Z,4.30
2023-02-07T10:39:27.896Z,4.40
2023-02-07T10:41:07.011Z,4.40
2023-02-07T10:42:41.221Z,4.40
2023-02-07T10:44:17.076Z,4.40
2023-02-07T10:45:54.325Z,4.50
2023-02-07T10:47:36.423Z,4.50
2023-02-07T10:49:24.793Z,4.60
2023-02-07T10:51:00.615Z,4.80
2023-02-07T10:52:37.591Z,4.90
2023-02-07T10:54:12.461Z,4.90
2023-02-07T10:55:47.405Z,5.00
2023-02-07T10:57:22.471Z,5.10
2023-02-07T10:58:57.361Z,5.10
2023-02-07T11:00:32.171Z,5.10
2023-02-07T11:02:41.058Z,5.10
2023-02-07T11:04:23.690Z,5.10
2023-02-07T11:05:58.760Z,5.00
2023-02-07T11:07:42.536Z,5.10
2023-02-07T11:09:23.000Z,5.00
2023-02-07T11:10:57.288Z,4.90
2023-02-07T11:12:31.317Z,5.00
2023-02-07T11:14:06.068Z,5.00
2023-02-07T11:15:47.625Z,5.00
2023-02-07T11:17:22.438Z,5.10
2023-02-07T11:18:59.308Z,5.20
2023-02-07T11:20:36.628Z,5.20
2023-02-07T11:22:15.278Z,5.40
2023-02-07T11:23:49.152Z,5.50
2023-02-07T11:25:29.165Z,5.40
2023-02-07T11:27:06.495Z,5.40
2023-02-07T11:28:41.704Z,5.40
2023-02-07T11:30:19.163Z,5.30
2023-02-07T11:31:54.274Z,5.30
2023-02-07T11:33:29.042Z,5.20
2023-02-07T11:35:06.288Z,5.20
2023-02-07T11:36:39.060Z,5.30
2023-02-07T11:38:14.804Z,5.30
2023-02-07T11:39:48.376Z,5.30
2023-02-07T11:41:24.437Z,5.30
2023-02-07T11:43:03.482Z,5.40
2023-02-07T11:44:43.236Z,5.40
2023-02-07T11:46:16.069Z,5.40
2023-02-07T11:47:54.023Z,5.40
2023-02-07T11:49:29.638Z,5.30
2023-02-07T11:51:04.216Z,5.30
2023-02-07T11:52:40.561Z,5.30
2023-02-07T11:54:15.214Z,5.30
2023-02-07T11:55:47.980Z,5.20
2023-02-07T11:57:22.381Z,5.20
2023-02-07T11:58:56.611Z,5.20
2023-02-07T12:00:35.859Z,5.20
2023-02-07T12:02:18.293Z,5.20
2023-02-07T12:03:58.573Z,5.20
2023-02-07T12:05:35.492Z,5.20
2023-02-07T12:07:13.080Z,5.20
2023-02-07T12:08:46.722Z,5.20
2023-02-07T12:10:23.689Z,5.10
2023-02-07T12:11:58.582Z,5.10
2023-02-07T12:13:36.284Z,5.10
2023-02-07T12:15:15.931Z,5.00
2023-02-07T12:16:53.204Z,5.00
2023-02-07T12:18:30.257Z,5.00
2023-02-07T12:20:09.836Z,4.90
2023-02-07T12:21:52.381Z,5.00
2023-02-07T12:23:42.359Z,4.90
2023-02-07T12:25:21.984Z,4.90
2023-02-07T12:27:00.533Z,4.90
2023-02-07T12:28:40.277Z,4.90
2023-02-07T12:30:21.260Z,4.90
2023-02-07T12:32:04.691Z,5.00
2023-02-07T12:33:44.239Z,5.10
2023-02-07T12:35:22.729Z,5.20
2023-02-07T12:37:01.104Z,5.20
2023-02-07T12:38:39.098Z,5.20
2023-02-07T12:40:19.295Z,5.10
2023-02-07T12:41:58.125Z,5.10
2023-02-07T12:43:33.840Z,5.10
2023-02-07T12:45:08.331Z,5.00
2023-02-07T12:46:50.910Z,4.90
2023-02-07T12:48:38.530Z,4.90
2023-02-07T12:50:21.599Z,4.90
2023-02-07T12:52:02.629Z,4.90
2023-02-07T12:53:46.755Z,4.90
2023-02-07T12:55:31.814Z,4.90
2023-02-07T12:57:13.075Z,5.00
2023-02-07T12:58:57.443Z,5.00
2023-02-07T13:00:36.717Z,5.00
2023-02-07T13:13:41.991Z,5.00
2023-02-07T13:15:23.170Z,5.20
2023-02-07T13:17:08.679Z,5.20
2023-02-07T13:18:47.213Z,5.10
2023-02-07T13:20:29.331Z,5.10
2023-02-07T13:22:07.101Z,5.00
2023-02-07T13:23:44.614Z,5.00
2023-02-07T13:25:22.762Z,5.00
2023-02-07T13:26:59.178Z,5.10
2023-02-07T13:28:41.240Z,5.10
2023-02-07T13:30:17.168Z,5.20
2023-02-07T13:31:53.854Z,5.20
2023-02-07T13:33:33.726Z,5.10
2023-02-07T13:35:09.136Z,5.20
2023-02-07T13:36:44.168Z,5.20
2023-02-07T13:38:23.657Z,5.20
2023-02-07T13:40:02.502Z,5.10
2023-02-07T13:41:44.445Z,5.00
2023-02-07T13:43:21.564Z,4.90
2023-02-07T13:45:05.344Z,5.00
2023-02-07T13:47:11.992Z,4.90
2023-02-07T13:48:51.787Z,4.90
2023-02-07T13:50:43.232Z,4.80
2023-02-07T13:52:23.272Z,4.80
2023-02-07T13:54:06.626Z,4.80
2023-02-07T13:55:42.315Z,4.70
2023-02-07T13:57:41.195Z,4.70
2023-02-07T13:59:39.187Z,4.70
2023-02-07T14:01:18.107Z,4.70
2023-02-07T14:02:53.846Z,4.70
2023-02-07T14:04:46.469Z,4.70
2023-02-07T14:06:24.311Z,4.70
2023-02-07T14:08:00.668Z,4.70
2023-02-07T14:09:36.786Z,4.70
2023-02-07T14:11:26.484Z,4.70
2023-02-07T14:12:59.940Z,4.60
2023-02-07T14:14:34.398Z,4.60
2023-02-07T14:16:10.235Z,4.50
2023-02-07T14:18:00.975Z,4.50
2023-02-07T14:19:52.230Z,4.50
2023-02-07T14:21:41.984Z,4.50
2023-02-07T14:23:17.155Z,4.50
2023-02-07T14:25:06.573Z,4.50
2023-02-07T14:26:58.155Z,4.40
2023-02-07T14:28:36.035Z,4.50
2023-02-07T14:30:20.421Z,4.50
2023-02-07T14:31:56.841Z,4.50
2023-02-07T14:33:36.711Z,4.50
2023-02-07T14:35:31.628Z,4.50
2023-02-07T14:37:22.184Z,4.50
2023-02-07T14:39:06.782Z,4.50
2023-02-07T14:41:01.773Z,4.40
2023-02-07T14:42:38.169Z,4.40
2023-02-07T14:44:24.853Z,4.40
2023-02-07T14:46:08.379Z,4.30
2023-02-07T14:47:41.250Z,4.40
2023-02-07T14:49:21.447Z,4.40
2023-02-07T14:50:55.373Z,4.40
2023-02-07T14:52:31.061Z,4.40
2023-02-07T14:54:07.867Z,4.40
2023-02-07T14:55:48.807Z,4.40
2023-02-07T14:57:33.676Z,4.40
2023-02-07T14:59:09.858Z,4.30
2023-02-07T15:00:50.073Z,4.40
2023-02-07T15:02:34.892Z,4.30
2023-02-07T15:04:10.710Z,4.40
2023-02-07T15:05:52.035Z,4.40
2023-02-07T15:07:24.788Z,4.40
2023-02-07T15:08:58.967Z,4.40
2023-02-07T15:10:33.814Z,4.30
2023-02-07T15:12:22.357Z,4.30
2023-02-07T15:14:02.891Z,4.30
2023-02-07T15:15:47.334Z,4.40
2023-02-07T15:17:22.310Z,4.30
2023-02-07T15:18:59.910Z,4.30
2023-02-07T15:20:35.241Z,4.30
2023-02-07T15:22:20.586Z,4.30
2023-02-07T15:24:01.343Z,4.30
2023-02-07T15:25:34.939Z,4.30
2023-02-07T15:27:19.379Z,4.30
2023-02-07T15:28:59.646Z,4.30
2023-02-07T15:30:32.938Z,4.20
2023-02-07T15:32:15.907Z,4.20
2023-02-07T15:33:53.028Z,4.20
2023-02-07T15:35:27.713Z,4.20
2023-02-07T15:37:12.548Z,4.20
2023-02-07T15:38:47.672Z,4.20
2023-02-07T15:40:24.933Z,4.20
2023-02-07T15:41:59.248Z,4.20
2023-02-07T15:43:33.722Z,4.20
2023-02-07T15:45:19.590Z,4.20
2023-02-07T15:46:58.550Z,4.20
2023-02-07T15:48:31.685Z,4.20
2023-02-07T15:50:07.787Z,4.20
2023-02-07T15:51:42.345Z,4.20
2023-02-07T15:53:22.023Z,4.20
2023-02-07T15:54:57.313Z,4.10
2023-02-07T15:56:31.658Z,4.20
2023-02-07T15:58:06.239Z,4.10
2023-02-07T15:59:42.336Z,4.10
2023-02-07T16:01:18.329Z,4.10
2023-02-07T16:02:58.807Z,4.10
2023-02-07T16:04:33.650Z,4.10
2023-02-07T16:06:13.886Z,4.10
2023-02-07T16:07:47.714Z,4.10
2023-02-07T16:09:36.197Z,4.10
2023-02-07T16:11:35.462Z,4.10
2023-02-07T16:13:17.730Z,4.00
2023-02-07T16:14:50.598Z,4.10
2023-02-07T16:16:26.981Z,4.00
2023-02-07T16:18:00.721Z,4.00
2023-02-07T16:19:34.025Z,3.90
2023-02-07T16:21:11.190Z,3.90
2023-02-07T16:22:45.503Z,3.80
2023-02-07T16:24:20.721Z,3.80
2023-02-07T16:25:53.459Z,3.80
2023-02-07T16:27:31.636Z,3.80
2023-02-07T16:29:05.857Z,3.70
2023-02-07T16:30:39.359Z,3.70
2023-02-07T16:32:13.754Z,3.60
2023-02-07T16:33:46.445Z,3.60
2023-02-07T16:35:23.698Z,3.60
2023-02-07T16:36:57.203Z,3.50
2023-02-07T16:38:29.874Z,3.50
2023-02-07T16:40:02.658Z,3.50
2023-02-07T16:41:39.358Z,3.40
2023-02-07T16:43:33.644Z,3.30
2023-02-07T16:45:06.919Z,3.30
2023-02-07T16:46:39.609Z,3.20
2023-02-07T16:48:15.738Z,3.10
2023-02-07T16:49:48.469Z,3.10
2023-02-07T16:51:21.285Z,3.00
2023-02-07T16:52:56.841Z,2.90
2023-02-07T16:54:29.548Z,2.80
2023-02-07T16:56:04.358Z,2.80
2023-02-07T16:57:37.820Z,2.70
2023-02-07T16:59:15.228Z,2.70
2023-02-07T17:00:47.924Z,2.60
2023-02-07T17:02:20.685Z,2.50
2023-02-07T17:03:53.436Z,2.50
2023-02-07T17:05:26.154Z,2.50
2023-02-07T17:06:58.825Z,2.50
2023-02-07T17:08:31.603Z,2.40
2023-02-07T17:10:11.606Z,2.40
2023-02-07T17:11:44.389Z,2.40
2023-02-07T17:13:19.302Z,2.40
2023-02-07T17:14:53.539Z,2.30
2023-02-07T17:16:28.122Z,2.30
2023-02-07T17:18:00.834Z,2.30
2023-02-07T17:19:33.683Z,2.30
2023-02-07T17:21:08.720Z,2.30
2023-02-07T17:22:41.410Z,2.30
2023-02-07T17:24:14.706Z,2.20
2023-02-07T17:25:48.172Z,2.20
2023-02-07T17:27:20.875Z,2.20
2023-02-07T17:28:54.868Z,2.20
2023-02-07T17:30:31.637Z,2.10
2023-02-07T17:32:04.430Z,2.10
2023-02-07T17:33:37.178Z,2.10
2023-02-07T17:35:09.902Z,2.10
2023-02-07T17:36:47.473Z,2.00
2023-02-07T17:38:20.163Z,2.00
2023-02-07T17:39:52.837Z,2.00
2023-02-07T17:41:25.932Z,2.00
2023-02-07T17:42:59.563Z,2.00
2023-02-07T17:44:34.030Z,2.00
2023-02-07T17:46:14.657Z,2.00
2023-02-07T17:47:47.411Z,2.00
2023-02-07T17:49:20.367Z,2.00
2023-02-07T17:50:55.940Z,2.00
2023-02-07T17:52:29.544Z,2.00
2023-02-07T17:54:02.233Z,2.00
2023-02-07T17:55:36.296Z,2.00
2023-02-07T17:57:11.326Z,2.00
2023-02-07T17:58:44.019Z,2.00
2023-02-07T18:00:19.523Z,2.00
2023-02-07T18:01:53.968Z,2.00
2023-02-07T18:03:26.658Z,1.90
2023-02-07T18:04:59.342Z,1.90
2023-02-07T18:06:32.315Z,1.90
2023-02-07T18:08:05.442Z,1.90
2023-02-07T18:09:38.134Z,1.90
2023-02-07T18:11:14.104Z,1.90
2023-02-07T18:12:47.398Z,1.90
2023-02-07T18:14:20.252Z,1.90
2023-02-07T18:15:52.983Z,1.90
2023-02-07T18:17:27.079Z,1.90
2023-02-07T18:18:59.798Z,1.90
2023-02-07T18:20:34.543Z,1.90
2023-02-07T18:22:07.304Z,1.90
2023-02-07T18:23:40.109Z,1.90
2023-02-07T18:25:12.808Z,1.90
2023-02-07T18:26:46.333Z,1.90
2023-02-07T18:28:19.445Z,1.90
2023-02-07T18:29:52.147Z,1.90
2023-02-07T18:31:25.918Z,1.90
2023-02-07T18:33:00.927Z,1.90
2023-02-07T18:34:34.523Z,1.90
2023-02-07T18:36:08.726Z,1.80
2023-02-07T18:37:41.602Z,1.90
2023-02-07T18:39:14.285Z,1.80
2023-02-07T18:40:46.966Z,1.80
2023-02-07T18:42:21.606Z,1.80
2023-02-07T18:43:54.299Z,1.80
2023-02-07T18:45:27.031Z,1.80
2023-02-07T18:46:59.892Z,1.80
2023-02-07T18:48:33.908Z,1.80
2023-02-07T18:50:07.286Z,1.80
2023-02-07T18:51:40.754Z,1.80
2023-02-07T18:53:13.749Z,1.70
2023-02-07T18:54:46.585Z,1.80
2023-02-07T18:56:21.541Z,1.80
2023-02-07T18:57:56.168Z,1.80
2023-02-07T18:59:30.775Z,1.80
2023-02-07T19:01:05.223Z,1.70
2023-02-07T19:02:38.285Z,1.70
2023-02-07T19:04:12.334Z,1.70
2023-02-07T19:05:45.629Z,1.70
2023-02-07T19:07:18.415Z,1.70
2023-02-07T19:08:51.413Z,1.70
2023-02-07T19:10:24.424Z,1.70
2023-02-07T19:11:58.096Z,1.60
2023-02-07T19:13:31.425Z,1.60
2023-02-07T19:15:04.356Z,1.60
2023-02-07T19:16:37.043Z,1.60
2023-02-07T19:18:09.740Z,1.60
2023-02-07T19:19:44.087Z,1.60
2023-02-07T19:21:21.494Z,1.60
2023-02-07T19:22:54.212Z,1.60
2023-02-07T19:24:28.045Z,1.60
2023-02-07T19:26:00.763Z,1.60
2023-02-07T19:27:33.772Z,1.60
2023-02-07T19:29:06.584Z,1.60
2023-02-07T19:30:40.658Z,1.60
2023-02-07T19:32:13.686Z,1.60
2023-02-07T19:33:47.922Z,1.60
2023-02-07T19:35:21.962Z,1.60
2023-02-07T19:36:54.771Z,1.60
2023-02-07T19:38:27.502Z,1.60
2023-02-07T19:40:00.224Z,1.60
2023-02-07T19:41:32.985Z,1.60
2023-02-07T19:43:05.670Z,1.50
2023-02-07T19:44:38.441Z,1.50
2023-02-07T19:46:11.258Z,1.50
2023-02-07T19:47:44.060Z,1.50
2023-02-07T19:49:17.168Z,1.40
2023-02-07T19:50:58.550Z,1.40
2023-02-07T19:52:31.243Z,1.40
2023-02-07T19:54:04.051Z,1.40
2023-02-07T19:55:39.041Z,1.30
2023-02-07T19:57:12.067Z,1.30
2023-02-07T19:58:46.974Z,1.30
2023-02-07T20:00:20.161Z,1.30
2023-02-07T20:01:53.684Z,1.30
2023-02-07T20:03:26.936Z,1.30
2023-02-07T20:04:59.771Z,1.20
2023-02-07T20:06:35.439Z,1.30
2023-02-07T20:08:08.104Z,1.20
2023-02-07T20:09:40.875Z,1.20
2023-02-07T20:11:15.862Z,1.20
2023-02-07T20:12:49.207Z,1.20
2023-02-07T20:14:22.079Z,1.20
2023-02-07T20:15:54.816Z,1.20
2023-02-07T20:17:28.001Z,1.20
2023-02-07T20:19:01.225Z,1.20
2023-02-07T20:20:34.006Z,1.20
2023-02-07T20:22:08.052Z,1.20
2023-02-07T20:23:41.953Z,1.10
2023-02-07T20:25:14.743Z,1.10
2023-02-07T20:26:47.554Z,1.10
2023-02-07T20:28:21.653Z,1.10
2023-02-07T20:29:54.682Z,1.00
2023-02-07T20:31:27.525Z,1.00
2023-02-07T20:33:00.283Z,1.00
2023-02-07T20:34:33.022Z,1.00
2023-02-07T20:36:06.131Z,1.00
2023-02-07T20:37:40.152Z,1.00
2023-02-07T20:39:15.597Z,1.00
2023-02-07T20:40:48.305Z,0.90
2023-02-07T20:42:21.010Z,0.90
2023-02-07T20:43:53.686Z,1.00
2023-02-07T20:45:26.390Z,1.00
2023-02-07T20:47:00.460Z,1.00
2023-02-07T20:48:32.447Z,0.90
2023-02-07T20:50:06.187Z,0.90
2023-02-07T20:51:39.164Z,0.90
2023-02-07T20:53:13.183Z,0.90
2023-02-07T20:54:45.907Z,0.90
2023-02-07T20:56:18.958Z,0.90
2023-02-07T20:57:51.986Z,0.90
2023-02-07T20:59:26.632Z,0.90
2023-02-07T21:00:59.372Z,0.90
2023-02-07T21:02:32.192Z,0.90
2023-02-07T21:04:06.690Z,0.90
2023-02-07T21:05:39.799Z,0.90
2023-02-07T21:07:12.686Z,0.90
2023-02-07T21:08:47.119Z,0.90
2023-02-07T21:10:20.121Z,0.90
2023-02-07T21:11:53.893Z,0.90
2023-02-07T21:13:27.231Z,0.80
2023-02-07T21:15:00.030Z,0.80
2023-02-07T21:16:33.505Z,0.80
2023-02-07T21:18:06.327Z,0.80
2023-02-07T21:19:39.831Z,0.80
2023-02-07T21:21:14.990Z,0.80
2023-02-07T21:22:47.706Z,0.80